Weather Center

VHHH METAR :
VHHH 231030Z 15012KT 9999 FEW015 31/24 Q1004 NOSIG

VHHH TAF :
VHHH 230500Z 2306/2412 26010KT 9999 FEW020 SCT030 TX32/2306Z TX33/2406Z
TN28/2322Z
TEMPO 2306/2310 3500 SHRA FEW015CB SCT025
BECMG 2309/2311 14010KT
TEMPO 2316/2324 VRB05KT
TEMPO 2321/2403 3000 -TSRA SHRA FEW012CB SCT025
TEMPO 2403/2409 24010KT

VMMC METAR :
VMMCH

VMMC TAF :
VMMC 230502Z 2306/2412 15008KT 9999 FEW020
TEMPO 2306/2312 4500 SHRA FEW010 SCT015CB
TEMPO 2320/2402 3500 SHRA FEW010 SCT015CB

Comments are closed